createdAt,value
2022-12-02T00:00:40.400Z,4.30
2022-12-02T00:03:20.093Z,4.20
2022-12-02T00:05:51.113Z,4.20
2022-12-02T00:08:32.038Z,4.20
2022-12-02T00:11:09.590Z,4.20
2022-12-02T00:13:52.966Z,4.20
2022-12-02T00:16:23.457Z,4.20
2022-12-02T00:18:58.347Z,4.30
2022-12-02T00:21:26.159Z,4.30
2022-12-02T00:24:00.210Z,4.30
2022-12-02T00:26:28.539Z,4.20
2022-12-02T00:29:01.990Z,4.20
2022-12-02T00:31:29.424Z,4.20
2022-12-02T00:34:05.189Z,4.20
2022-12-02T00:36:32.651Z,4.20
2022-12-02T00:39:05.889Z,4.10
2022-12-02T00:41:33.348Z,4.10
2022-12-02T00:44:26.008Z,4.10
2022-12-02T00:46:53.198Z,4.10
2022-12-02T00:49:27.164Z,4.00
2022-12-02T00:51:54.400Z,4.00
2022-12-02T00:54:21.629Z,3.90
2022-12-02T00:56:55.914Z,3.90
2022-12-02T00:59:23.551Z,3.90
2022-12-02T01:01:59.072Z,3.90
2022-12-02T01:04:26.509Z,3.90
2022-12-02T01:07:02.063Z,3.90
2022-12-02T01:09:48.939Z,3.90
2022-12-02T01:12:16.416Z,3.90
2022-12-02T01:14:50.276Z,3.90
2022-12-02T01:17:17.990Z,3.90
2022-12-02T01:19:52.404Z,3.80
2022-12-02T01:22:26.035Z,3.80
2022-12-02T01:24:53.528Z,3.80
2022-12-02T01:27:27.951Z,3.80
2022-12-02T01:29:55.274Z,3.80
2022-12-02T01:32:30.129Z,3.80
2022-12-02T01:34:58.797Z,3.80
2022-12-02T01:37:33.154Z,3.70
2022-12-02T01:40:01.664Z,3.70
2022-12-02T01:42:36.084Z,3.70
2022-12-02T01:45:09.939Z,3.80
2022-12-02T01:47:44.905Z,3.80
2022-12-02T01:50:12.694Z,3.70
2022-12-02T01:52:47.180Z,3.70
2022-12-02T01:55:25.774Z,3.70
2022-12-02T01:57:59.989Z,3.60
2022-12-02T02:00:28.053Z,3.60
2022-12-02T02:03:02.021Z,3.50
2022-12-02T02:05:31.658Z,3.50
2022-12-02T02:08:14.026Z,3.50
2022-12-02T02:10:49.306Z,3.50
2022-12-02T02:13:24.945Z,3.40
2022-12-02T02:15:52.201Z,3.50
2022-12-02T02:18:25.940Z,3.50
2022-12-02T02:20:55.930Z,3.50
2022-12-02T02:23:35.025Z,3.60
2022-12-02T02:26:04.665Z,3.60
2022-12-02T02:28:39.334Z,3.70
2022-12-02T02:31:06.975Z,3.70
2022-12-02T02:33:42.274Z,3.70
2022-12-02T02:36:10.458Z,3.70
2022-12-02T02:38:44.983Z,3.70
2022-12-02T02:41:12.347Z,3.70
2022-12-02T02:43:46.991Z,3.60
2022-12-02T02:46:15.264Z,3.60
2022-12-02T02:48:50.739Z,3.60
2022-12-02T02:51:18.619Z,3.60
2022-12-02T02:53:53.069Z,3.60
2022-12-02T02:56:27.063Z,3.60
2022-12-02T02:59:01.074Z,3.60
2022-12-02T03:01:37.670Z,3.70
2022-12-02T03:04:17.114Z,3.60
2022-12-02T03:06:46.000Z,3.60
2022-12-02T03:09:30.233Z,3.60
2022-12-02T03:11:59.180Z,3.50
2022-12-02T03:14:34.970Z,3.50
2022-12-02T03:17:10.025Z,3.50
2022-12-02T03:19:38.798Z,3.40
2022-12-02T03:22:12.991Z,3.50
2022-12-02T03:24:40.630Z,3.50
2022-12-02T03:27:16.940Z,3.50
2022-12-02T03:29:44.952Z,3.40
2022-12-02T03:32:13.238Z,3.40
2022-12-02T03:34:49.758Z,3.40
2022-12-02T03:37:17.545Z,3.40
2022-12-02T03:39:51.007Z,3.40
2022-12-02T03:42:18.729Z,3.40
2022-12-02T03:44:53.779Z,3.40
2022-12-02T03:47:22.228Z,3.40
2022-12-02T03:49:56.234Z,3.40
2022-12-02T03:52:24.066Z,3.40
2022-12-02T03:54:58.302Z,3.40
2022-12-02T03:57:26.055Z,3.40
2022-12-02T04:00:00.378Z,3.40
2022-12-02T04:02:36.173Z,3.40
2022-12-02T04:05:09.961Z,3.40
2022-12-02T04:07:37.326Z,3.40
2022-12-02T04:10:15.032Z,3.40
2022-12-02T04:12:54.855Z,3.40
2022-12-02T04:15:29.856Z,3.40
2022-12-02T04:17:57.566Z,3.40
2022-12-02T04:20:30.965Z,3.40
2022-12-02T04:23:05.055Z,3.40
2022-12-02T04:25:32.296Z,3.50
2022-12-02T04:28:06.065Z,3.50
2022-12-02T04:30:39.940Z,3.50
2022-12-02T04:33:07.555Z,3.50
2022-12-02T04:35:40.910Z,3.50
2022-12-02T04:38:14.990Z,3.60
2022-12-02T04:40:49.003Z,3.60
2022-12-02T04:43:16.589Z,3.60
2022-12-02T04:45:50.550Z,3.60
2022-12-02T04:48:17.755Z,3.60
2022-12-02T04:50:52.053Z,3.60
2022-12-02T04:53:20.464Z,3.60
2022-12-02T04:55:53.990Z,3.60
2022-12-02T04:58:28.872Z,3.60
2022-12-02T05:01:03.565Z,3.60
2022-12-02T05:03:37.338Z,3.60
2022-12-02T05:06:11.034Z,3.60
2022-12-02T05:08:44.920Z,3.60
2022-12-02T05:11:19.172Z,3.50
2022-12-02T05:13:52.980Z,3.50
2022-12-02T05:16:20.467Z,3.50
2022-12-02T05:18:54.249Z,3.50
2022-12-02T05:21:21.911Z,3.50
2022-12-02T05:23:56.208Z,3.50
2022-12-02T05:26:23.449Z,3.50
2022-12-02T05:28:56.939Z,3.60
2022-12-02T05:31:31.054Z,3.60
2022-12-02T05:33:58.416Z,3.60
2022-12-02T05:36:32.333Z,3.60
2022-12-02T05:38:59.743Z,3.60
2022-12-02T05:41:34.024Z,3.60
2022-12-02T05:44:39.381Z,3.60
2022-12-02T05:47:11.140Z,3.60
2022-12-02T05:49:45.937Z,3.60
2022-12-02T05:52:24.598Z,3.60
2022-12-02T05:55:08.034Z,3.60
2022-12-02T05:57:42.037Z,3.60
2022-12-02T06:00:36.887Z,3.60
2022-12-02T06:03:16.211Z,3.60
2022-12-02T06:05:51.053Z,3.60
2022-12-02T06:08:26.318Z,3.70
2022-12-02T06:11:18.059Z,3.70
2022-12-02T06:13:51.913Z,3.60
2022-12-02T06:16:26.199Z,3.70
2022-12-02T06:19:01.247Z,3.70
2022-12-02T06:21:28.711Z,3.70
2022-12-02T06:24:04.932Z,3.70
2022-12-02T06:26:39.065Z,3.70
2022-12-02T06:29:13.125Z,3.60
2022-12-02T06:31:51.032Z,3.70
2022-12-02T06:34:35.701Z,3.70
2022-12-02T06:37:25.242Z,3.80
2022-12-02T06:43:01.155Z,3.80
2022-12-02T06:45:42.091Z,3.80
2022-12-02T06:48:21.259Z,3.80
2022-12-02T06:50:56.038Z,3.80
2022-12-02T06:53:47.994Z,3.80
2022-12-02T06:56:22.681Z,3.80
2022-12-02T06:59:10.939Z,4.30
2022-12-02T07:01:42.530Z,4.80
2022-12-02T07:04:15.965Z,4.80
2022-12-02T07:06:53.218Z,4.60
2022-12-02T07:09:45.200Z,4.50
2022-12-02T07:12:50.990Z,4.30
2022-12-02T07:15:37.028Z,4.20
2022-12-02T07:18:26.026Z,4.10
2022-12-02T07:20:59.952Z,4.10
2022-12-02T07:23:34.914Z,4.00
2022-12-02T07:26:09.141Z,4.00
2022-12-02T07:28:46.960Z,4.00
2022-12-02T07:31:27.169Z,4.00
2022-12-02T07:34:01.105Z,4.00
2022-12-02T07:36:28.281Z,4.10
2022-12-02T07:39:06.563Z,4.10
2022-12-02T07:41:37.247Z,4.00
2022-12-02T07:44:13.506Z,4.00
2022-12-02T07:46:47.070Z,3.90
2022-12-02T07:49:14.332Z,3.90
2022-12-02T07:51:48.105Z,3.90
2022-12-02T07:54:15.560Z,3.90
2022-12-02T07:56:49.996Z,3.90
2022-12-02T07:59:17.167Z,3.80
2022-12-02T08:01:52.123Z,3.80
2022-12-02T08:04:19.289Z,3.80
2022-12-02T08:06:53.067Z,3.80
2022-12-02T08:09:43.079Z,3.80
2022-12-02T08:12:10.424Z,3.80
2022-12-02T08:14:37.688Z,3.90
2022-12-02T08:17:12.047Z,3.90
2022-12-02T08:19:47.008Z,3.90
2022-12-02T08:22:14.059Z,4.00
2022-12-02T08:24:41.484Z,4.00
2022-12-02T08:27:15.089Z,4.00
2022-12-02T08:29:49.058Z,4.00
2022-12-02T08:32:27.072Z,3.90
2022-12-02T08:35:00.979Z,3.90
2022-12-02T08:37:28.342Z,3.90
2022-12-02T08:40:02.149Z,3.90
2022-12-02T08:42:36.226Z,3.90
2022-12-02T08:45:04.006Z,3.80
2022-12-02T08:47:39.518Z,3.80
2022-12-02T08:50:07.361Z,3.80
2022-12-02T08:52:41.227Z,3.80
2022-12-02T08:55:15.260Z,3.80
2022-12-02T08:57:49.085Z,3.80
2022-12-02T09:00:16.597Z,3.90
2022-12-02T09:02:50.294Z,3.90
2022-12-02T09:05:24.889Z,3.90
2022-12-02T09:07:52.134Z,3.90
2022-12-02T09:10:32.101Z,3.90
2022-12-02T09:13:06.347Z,3.90
2022-12-02T09:15:40.868Z,3.90
2022-12-02T09:18:15.002Z,4.00
2022-12-02T09:20:52.394Z,4.00
2022-12-02T09:23:25.959Z,4.00
2022-12-02T09:25:53.638Z,4.00
2022-12-02T09:28:29.096Z,4.10
2022-12-02T09:31:03.127Z,4.10
2022-12-02T09:33:33.847Z,4.20
2022-12-02T09:36:08.135Z,4.10
2022-12-02T09:38:42.013Z,4.10
2022-12-02T09:41:09.744Z,4.10
2022-12-02T09:43:44.223Z,4.10
2022-12-02T09:46:11.651Z,4.00
2022-12-02T09:48:45.064Z,4.10
2022-12-02T09:51:12.573Z,4.00
2022-12-02T09:53:48.249Z,4.00
2022-12-02T09:56:19.334Z,4.00
2022-12-02T09:59:03.193Z,4.00
2022-12-02T10:01:30.488Z,3.90
2022-12-02T10:04:04.093Z,3.90
2022-12-02T10:06:31.752Z,3.90
2022-12-02T10:09:06.052Z,3.90
2022-12-02T10:11:47.508Z,4.00
2022-12-02T10:14:23.192Z,4.00
2022-12-02T10:16:54.147Z,4.00
2022-12-02T10:19:28.991Z,4.00
2022-12-02T10:22:03.028Z,4.00
2022-12-02T10:24:47.085Z,4.00
2022-12-02T10:27:46.983Z,4.00
2022-12-02T10:30:29.228Z,4.00
2022-12-02T10:33:13.152Z,4.00
2022-12-02T10:36:00.111Z,4.00
2022-12-02T10:38:40.119Z,4.00
2022-12-02T10:41:23.078Z,3.90
2022-12-02T10:43:53.632Z,3.90
2022-12-02T10:46:29.210Z,3.90
2022-12-02T10:49:15.742Z,3.90
2022-12-02T10:51:50.157Z,4.00
2022-12-02T10:54:26.223Z,4.00
2022-12-02T10:57:00.064Z,4.00
2022-12-02T10:59:34.139Z,4.00
2022-12-02T11:02:02.305Z,4.00
2022-12-02T11:04:30.683Z,4.00
2022-12-02T11:07:06.053Z,4.00
2022-12-02T11:09:43.320Z,4.00
2022-12-02T11:12:35.477Z,4.10
2022-12-02T11:15:33.034Z,4.10
2022-12-02T11:18:07.053Z,4.10
2022-12-02T11:20:38.634Z,4.10
2022-12-02T11:23:36.199Z,4.10
2022-12-02T11:26:21.663Z,4.10
2022-12-02T11:29:11.066Z,4.10
2022-12-02T11:31:44.978Z,4.10
2022-12-02T11:34:47.801Z,4.10
2022-12-02T11:37:47.106Z,4.10
2022-12-02T11:40:24.029Z,4.10
2022-12-02T11:42:53.027Z,4.10
2022-12-02T11:45:27.042Z,4.10
2022-12-02T11:48:01.471Z,4.10
2022-12-02T11:50:42.321Z,4.10
2022-12-02T11:53:19.748Z,4.20
2022-12-02T11:56:00.073Z,4.20
2022-12-02T11:58:34.499Z,4.20
2022-12-02T12:01:23.051Z,4.20
2022-12-02T12:03:59.109Z,4.20
2022-12-02T12:06:30.494Z,4.20
2022-12-02T12:09:05.171Z,4.10
2022-12-02T12:11:42.653Z,4.10
2022-12-02T12:14:25.108Z,4.10
2022-12-02T12:17:12.486Z,4.00
2022-12-02T12:19:46.051Z,4.00
2022-12-02T12:22:35.115Z,4.00
2022-12-02T12:25:51.970Z,4.00
2022-12-02T12:28:35.780Z,4.10
2022-12-02T12:31:13.763Z,4.10
2022-12-02T12:33:40.997Z,4.10
2022-12-02T12:36:15.200Z,4.10
2022-12-02T12:38:42.342Z,4.10
2022-12-02T12:41:25.882Z,4.10
2022-12-02T12:44:10.485Z,4.10
2022-12-02T12:46:37.904Z,4.10
2022-12-02T12:49:12.157Z,4.10
2022-12-02T12:51:39.905Z,4.00
2022-12-02T12:54:14.332Z,4.10
2022-12-02T12:56:48.113Z,4.10
2022-12-02T12:59:15.535Z,4.10
2022-12-02T13:01:51.419Z,4.10
2022-12-02T13:04:25.196Z,4.10
2022-12-02T13:07:05.162Z,4.10
2022-12-02T13:09:39.404Z,4.10
2022-12-02T13:12:19.328Z,4.10
2022-12-02T13:14:46.564Z,4.10
2022-12-02T13:17:19.976Z,4.10
2022-12-02T13:19:54.313Z,4.10
2022-12-02T13:22:21.503Z,4.10
2022-12-02T13:24:55.494Z,4.10
2022-12-02T13:27:24.433Z,4.10
2022-12-02T13:29:58.164Z,4.10
2022-12-02T13:32:25.558Z,4.10
2022-12-02T13:34:59.183Z,4.10
2022-12-02T13:37:26.665Z,4.10
2022-12-02T13:40:00.136Z,4.00
2022-12-02T13:42:34.403Z,4.00
2022-12-02T13:45:01.669Z,4.00
2022-12-02T13:47:36.184Z,4.10
2022-12-02T13:50:03.864Z,4.10
2022-12-02T13:52:38.183Z,4.10
2022-12-02T13:55:06.074Z,4.20
2022-12-02T13:57:40.116Z,4.20
2022-12-02T14:00:15.183Z,4.20
2022-12-02T14:02:42.634Z,4.20
2022-12-02T14:05:17.154Z,4.20
2022-12-02T14:07:51.423Z,4.10
2022-12-02T14:10:26.310Z,4.10
2022-12-02T14:13:01.091Z,4.10
2022-12-02T14:15:28.831Z,4.10
2022-12-02T14:18:03.272Z,4.20
2022-12-02T14:20:30.857Z,4.20
2022-12-02T14:22:58.015Z,4.20
2022-12-02T14:25:32.208Z,4.20
2022-12-02T14:27:59.415Z,4.20
2022-12-02T14:30:26.770Z,4.20
2022-12-02T14:33:01.440Z,4.20
2022-12-02T14:35:28.658Z,4.20
2022-12-02T14:38:02.097Z,4.20
2022-12-02T14:40:37.202Z,4.20
2022-12-02T14:43:07.393Z,4.20
2022-12-02T14:45:44.438Z,4.20
2022-12-02T14:48:11.897Z,4.20
2022-12-02T14:50:39.239Z,4.20
2022-12-02T14:53:13.078Z,4.20
2022-12-02T14:55:40.313Z,4.20
2022-12-02T14:58:14.829Z,4.20
2022-12-02T15:00:42.338Z,4.20
2022-12-02T15:03:16.441Z,4.30
2022-12-02T15:05:43.839Z,4.20
2022-12-02T15:08:18.332Z,4.30
2022-12-02T15:10:52.178Z,4.30
2022-12-02T15:13:19.477Z,4.30
2022-12-02T15:15:58.297Z,4.30
2022-12-02T15:18:30.347Z,4.20
2022-12-02T15:21:06.986Z,4.20
2022-12-02T15:23:44.077Z,4.30
2022-12-02T15:26:11.453Z,4.30
2022-12-02T15:28:38.742Z,4.30
2022-12-02T15:31:13.306Z,4.30
2022-12-02T15:33:40.458Z,4.30
2022-12-02T15:36:15.194Z,4.30
2022-12-02T15:38:43.047Z,4.20
2022-12-02T15:41:17.123Z,4.20
2022-12-02T15:43:48.597Z,4.20
2022-12-02T15:46:26.648Z,4.30
2022-12-02T15:48:54.249Z,4.30
2022-12-02T15:51:28.212Z,4.30
2022-12-02T15:53:55.700Z,4.30
2022-12-02T15:56:29.567Z,4.30
2022-12-02T15:58:57.198Z,4.30
2022-12-02T16:01:31.323Z,4.30
2022-12-02T16:03:59.018Z,4.30
2022-12-02T16:06:33.281Z,4.30
2022-12-02T16:09:00.602Z,4.30
2022-12-02T16:11:41.493Z,4.20
2022-12-02T16:14:15.698Z,4.20
2022-12-02T16:16:49.392Z,4.20
2022-12-02T16:19:16.803Z,4.20
2022-12-02T16:21:51.267Z,4.20
2022-12-02T16:24:18.739Z,4.20
2022-12-02T16:26:50.795Z,4.20
2022-12-02T16:29:28.087Z,4.30
2022-12-02T16:31:56.018Z,4.30
2022-12-02T16:34:30.308Z,4.30
2022-12-02T16:36:57.834Z,4.30
2022-12-02T16:39:32.599Z,4.30
2022-12-02T16:41:59.957Z,4.30
2022-12-02T16:44:34.378Z,4.30
2022-12-02T16:47:01.718Z,4.30
2022-12-02T16:49:35.140Z,4.30
2022-12-02T16:52:03.686Z,4.30
2022-12-02T16:54:37.212Z,4.30
2022-12-02T16:57:05.242Z,4.40
2022-12-02T16:59:32.630Z,4.40
2022-12-02T17:02:06.399Z,4.40
2022-12-02T17:04:40.148Z,4.40
2022-12-02T17:07:29.190Z,4.40
2022-12-02T17:10:17.144Z,4.40
2022-12-02T17:12:51.078Z,4.40
2022-12-02T17:15:25.161Z,4.40
2022-12-02T17:17:52.785Z,4.40
2022-12-02T17:20:27.162Z,4.40
2022-12-02T17:23:01.148Z,4.40
2022-12-02T17:25:28.398Z,4.40
2022-12-02T17:28:02.688Z,4.40
2022-12-02T17:30:30.112Z,4.40
2022-12-02T17:33:04.467Z,4.40
2022-12-02T17:35:32.000Z,4.30
2022-12-02T17:38:06.152Z,4.30
2022-12-02T17:40:33.637Z,4.30
2022-12-02T17:43:07.107Z,4.30
2022-12-02T17:45:35.049Z,4.30
2022-12-02T17:48:09.277Z,4.20
2022-12-02T17:50:36.858Z,4.20
2022-12-02T17:53:11.007Z,4.20
2022-12-02T17:55:45.188Z,4.20
2022-12-02T17:58:12.519Z,4.10
2022-12-02T18:00:46.179Z,4.10
2022-12-02T18:03:20.645Z,4.10
2022-12-02T18:05:48.589Z,4.10
2022-12-02T18:08:24.188Z,4.10
2022-12-02T18:11:11.184Z,4.10
2022-12-02T18:13:38.292Z,4.10
2022-12-02T18:16:14.303Z,4.20
2022-12-02T18:18:41.993Z,4.20
2022-12-02T18:21:16.172Z,4.20
2022-12-02T18:23:43.691Z,4.20
2022-12-02T18:26:19.206Z,4.20
2022-12-02T18:28:46.597Z,4.20
2022-12-02T18:31:20.173Z,4.20
2022-12-02T18:33:47.517Z,4.20
2022-12-02T18:36:21.159Z,4.20
2022-12-02T18:38:48.237Z,4.20
2022-12-02T18:41:22.159Z,4.20
2022-12-02T18:43:49.466Z,4.20
2022-12-02T18:46:23.110Z,4.20
2022-12-02T18:48:50.342Z,4.30
2022-12-02T18:51:24.267Z,4.30
2022-12-02T18:53:51.652Z,4.30
2022-12-02T18:56:25.713Z,4.20
2022-12-02T18:58:56.948Z,4.20
2022-12-02T19:01:34.287Z,4.20
2022-12-02T19:04:02.109Z,4.20
2022-12-02T19:06:36.245Z,4.20
2022-12-02T19:09:04.044Z,4.10
2022-12-02T19:11:38.222Z,4.20
2022-12-02T19:14:12.065Z,4.20
2022-12-02T19:16:46.128Z,4.10
2022-12-02T19:19:15.359Z,4.10
2022-12-02T19:21:49.149Z,4.10
2022-12-02T19:24:16.643Z,4.10
2022-12-02T19:26:50.062Z,4.10
2022-12-02T19:29:17.564Z,4.10
2022-12-02T19:31:51.323Z,4.10
2022-12-02T19:34:18.863Z,4.20
2022-12-02T19:36:56.328Z,4.20
2022-12-02T19:39:23.746Z,4.20
2022-12-02T19:41:57.164Z,4.20
2022-12-02T19:44:24.802Z,4.20
2022-12-02T19:46:52.357Z,4.20
2022-12-02T19:49:26.183Z,4.20
2022-12-02T19:52:00.328Z,4.20
2022-12-02T19:54:27.709Z,4.20
2022-12-02T19:56:55.142Z,4.20
2022-12-02T19:59:29.263Z,4.20
2022-12-02T20:01:57.028Z,4.20
2022-12-02T20:04:41.484Z,4.20
2022-12-02T20:07:16.242Z,4.20
2022-12-02T20:09:43.522Z,4.20
2022-12-02T20:12:24.183Z,4.30
2022-12-02T20:14:51.651Z,4.30
2022-12-02T20:17:26.202Z,4.30
2022-12-02T20:19:53.983Z,4.30
2022-12-02T20:22:27.982Z,4.20
2022-12-02T20:25:02.522Z,4.30
2022-12-02T20:27:36.143Z,4.30
2022-12-02T20:30:04.522Z,4.30
2022-12-02T20:32:39.182Z,4.30
2022-12-02T20:35:06.779Z,4.30
2022-12-02T20:37:41.404Z,4.30
2022-12-02T20:40:14.623Z,4.30
2022-12-02T20:42:49.244Z,4.30
2022-12-02T20:45:17.043Z,4.30
2022-12-02T20:47:51.703Z,4.30
2022-12-02T20:50:19.269Z,4.30
2022-12-02T20:52:54.174Z,4.30
2022-12-02T20:55:22.262Z,4.30
2022-12-02T20:57:56.243Z,4.40
2022-12-02T21:00:24.574Z,4.40
2022-12-02T21:02:58.428Z,4.40
2022-12-02T21:05:26.265Z,4.40
2022-12-02T21:08:00.621Z,4.40
2022-12-02T21:10:34.064Z,4.30
2022-12-02T21:13:21.043Z,4.30
2022-12-02T21:15:48.827Z,4.30
2022-12-02T21:18:23.203Z,4.30
2022-12-02T21:20:57.463Z,4.30
2022-12-02T21:23:27.984Z,4.30
2022-12-02T21:26:02.284Z,4.40
2022-12-02T21:28:36.482Z,4.40
2022-12-02T21:31:10.338Z,4.50
2022-12-02T21:33:38.370Z,4.50
2022-12-02T21:36:12.204Z,4.50
2022-12-02T21:38:40.053Z,4.50
2022-12-02T21:41:14.446Z,4.50
2022-12-02T21:43:48.683Z,4.50
2022-12-02T21:46:15.975Z,4.50
2022-12-02T21:48:51.863Z,4.50
2022-12-02T21:51:18.983Z,4.50
2022-12-02T21:53:46.343Z,4.40
2022-12-02T21:56:20.703Z,4.40
2022-12-02T21:58:55.782Z,4.40
2022-12-02T22:01:49.238Z,4.30
2022-12-02T22:04:19.558Z,4.30
2022-12-02T22:06:53.444Z,4.30
2022-12-02T22:09:21.458Z,4.30
2022-12-02T22:12:08.188Z,4.30
2022-12-02T22:14:37.138Z,4.30
2022-12-02T22:17:04.979Z,4.30
2022-12-02T22:19:40.013Z,4.30
2022-12-02T22:22:07.533Z,4.30
2022-12-02T22:24:42.373Z,4.30
2022-12-02T22:27:16.227Z,4.30
2022-12-02T22:29:43.633Z,4.30
2022-12-02T22:32:11.109Z,4.30
2022-12-02T22:34:45.892Z,4.30
2022-12-02T22:37:13.392Z,4.30
2022-12-02T22:39:47.274Z,4.30
2022-12-02T22:42:14.678Z,4.30
2022-12-02T22:44:49.249Z,4.30
2022-12-02T22:47:16.574Z,4.30
2022-12-02T22:49:50.215Z,4.20
2022-12-02T22:52:17.493Z,4.20
2022-12-02T22:54:52.098Z,4.20
2022-12-02T22:57:19.707Z,4.20
2022-12-02T22:59:53.192Z,4.20
2022-12-02T23:02:20.501Z,4.20
2022-12-02T23:04:54.669Z,4.20
2022-12-02T23:07:22.180Z,4.20
2022-12-02T23:09:56.469Z,4.20
2022-12-02T23:12:43.227Z,4.20
2022-12-02T23:15:35.314Z,4.20
2022-12-02T23:18:08.618Z,4.20
2022-12-02T23:20:36.218Z,4.20
2022-12-02T23:23:10.271Z,4.20
2022-12-02T23:25:37.597Z,4.20
2022-12-02T23:28:11.209Z,4.20
2022-12-02T23:30:38.619Z,4.20
2022-12-02T23:33:12.177Z,4.30
2022-12-02T23:35:39.228Z,4.30
2022-12-02T23:38:13.305Z,4.30
2022-12-02T23:40:40.759Z,4.30
2022-12-02T23:43:15.109Z,4.20
2022-12-02T23:45:42.574Z,4.20
2022-12-02T23:48:16.738Z,4.20
2022-12-02T23:50:44.569Z,4.10
2022-12-02T23:53:18.168Z,4.10
2022-12-02T23:55:45.497Z,4.20
2022-12-02T23:58:19.257Z,4.20
